sensor_id;sensor_type;location;lat;lon;timestamp;P1;durP1;ratioP1;P2;durP2;ratioP2
8230;SDS011;4156;50.908;6.974;2023-04-03T00:01:13;3.80;;;2.50;;
8230;SDS011;4156;50.908;6.974;2023-04-03T00:03:38;4.13;;;2.23;;
8230;SDS011;4156;50.908;6.974;2023-04-03T00:06:04;2.93;;;1.90;;
8230;SDS011;4156;50.908;6.974;2023-04-03T00:08:34;2.93;;;2.07;;
8230;SDS011;4156;50.908;6.974;2023-04-03T00:11:00;3.67;;;2.07;;
8230;SDS011;4156;50.908;6.974;2023-04-03T00:13:25;7.87;;;2.83;;
8230;SDS011;4156;50.908;6.974;2023-04-03T00:15:51;3.57;;;1.70;;
8230;SDS011;4156;50.908;6.974;2023-04-03T00:18:17;3.70;;;2.00;;
8230;SDS011;4156;50.908;6.974;2023-04-03T00:20:43;3.90;;;2.27;;
8230;SDS011;4156;50.908;6.974;2023-04-03T00:23:09;2.43;;;2.00;;
8230;SDS011;4156;50.908;6.974;2023-04-03T00:25:34;5.13;;;2.23;;
8230;SDS011;4156;50.908;6.974;2023-04-03T00:28:00;4.30;;;2.37;;
8230;SDS011;4156;50.908;6.974;2023-04-03T00:30:26;3.37;;;2.40;;
8230;SDS011;4156;50.908;6.974;2023-04-03T00:32:52;6.07;;;2.40;;
8230;SDS011;4156;50.908;6.974;2023-04-03T00:35:18;4.73;;;2.70;;
8230;SDS011;4156;50.908;6.974;2023-04-03T00:37:45;4.13;;;2.53;;
8230;SDS011;4156;50.908;6.974;2023-04-03T00:40:11;2.87;;;2.17;;
8230;SDS011;4156;50.908;6.974;2023-04-03T00:42:39;3.70;;;2.37;;
8230;SDS011;4156;50.908;6.974;2023-04-03T00:47:31;4.03;;;2.20;;
8230;SDS011;4156;50.908;6.974;2023-04-03T00:49:57;2.70;;;2.13;;
8230;SDS011;4156;50.908;6.974;2023-04-03T00:52:25;4.27;;;2.33;;
8230;SDS011;4156;50.908;6.974;2023-04-03T00:54:54;3.50;;;2.40;;
8230;SDS011;4156;50.908;6.974;2023-04-03T00:57:25;3.23;;;2.27;;
8230;SDS011;4156;50.908;6.974;2023-04-03T00:59:53;3.17;;;2.60;;
8230;SDS011;4156;50.908;6.974;2023-04-03T01:02:24;3.23;;;2.00;;
8230;SDS011;4156;50.908;6.974;2023-04-03T01:04:50;4.10;;;2.60;;
8230;SDS011;4156;50.908;6.974;2023-04-03T01:07:17;4.03;;;2.27;;
8230;SDS011;4156;50.908;6.974;2023-04-03T01:09:47;2.43;;;2.00;;
8230;SDS011;4156;50.908;6.974;2023-04-03T01:14:49;5.57;;;2.50;;
8230;SDS011;4156;50.908;6.974;2023-04-03T01:20:13;2.77;;;2.20;;
8230;SDS011;4156;50.908;6.974;2023-04-03T01:25:43;2.47;;;1.80;;
8230;SDS011;4156;50.908;6.974;2023-04-03T01:28:11;2.60;;;1.90;;
8230;SDS011;4156;50.908;6.974;2023-04-03T01:30:42;3.67;;;2.00;;
8230;SDS011;4156;50.908;6.974;2023-04-03T01:33:12;8.40;;;2.10;;
8230;SDS011;4156;50.908;6.974;2023-04-03T01:35:38;2.67;;;1.80;;
8230;SDS011;4156;50.908;6.974;2023-04-03T01:38:03;4.23;;;2.00;;
8230;SDS011;4156;50.908;6.974;2023-04-03T01:40:29;3.77;;;2.50;;
8230;SDS011;4156;50.908;6.974;2023-04-03T01:42:54;5.80;;;2.47;;
8230;SDS011;4156;50.908;6.974;2023-04-03T01:45:20;4.97;;;2.20;;
8230;SDS011;4156;50.908;6.974;2023-04-03T01:47:45;2.27;;;1.80;;
8230;SDS011;4156;50.908;6.974;2023-04-03T01:50:11;3.43;;;2.30;;
8230;SDS011;4156;50.908;6.974;2023-04-03T01:52:36;2.23;;;1.90;;
8230;SDS011;4156;50.908;6.974;2023-04-03T01:55:02;3.47;;;2.10;;
8230;SDS011;4156;50.908;6.974;2023-04-03T01:57:28;3.23;;;2.23;;
8230;SDS011;4156;50.908;6.974;2023-04-03T01:59:53;3.83;;;2.00;;
8230;SDS011;4156;50.908;6.974;2023-04-03T02:02:19;3.77;;;2.20;;
8230;SDS011;4156;50.908;6.974;2023-04-03T02:04:45;4.83;;;2.00;;
8230;SDS011;4156;50.908;6.974;2023-04-03T02:07:11;3.57;;;2.13;;
8230;SDS011;4156;50.908;6.974;2023-04-03T02:09:36;4.17;;;2.93;;
8230;SDS011;4156;50.908;6.974;2023-04-03T02:12:02;2.70;;;2.07;;
8230;SDS011;4156;50.908;6.974;2023-04-03T02:14:27;5.67;;;2.00;;
8230;SDS011;4156;50.908;6.974;2023-04-03T02:16:53;4.17;;;2.40;;
8230;SDS011;4156;50.908;6.974;2023-04-03T02:19:19;5.23;;;2.53;;
8230;SDS011;4156;50.908;6.974;2023-04-03T02:21:45;4.80;;;2.47;;
8230;SDS011;4156;50.908;6.974;2023-04-03T02:24:10;3.23;;;2.20;;
8230;SDS011;4156;50.908;6.974;2023-04-03T02:26:36;4.37;;;2.30;;
8230;SDS011;4156;50.908;6.974;2023-04-03T02:29:01;3.27;;;2.10;;
8230;SDS011;4156;50.908;6.974;2023-04-03T02:31:27;3.97;;;2.33;;
8230;SDS011;4156;50.908;6.974;2023-04-03T02:33:53;3.40;;;2.30;;
8230;SDS011;4156;50.908;6.974;2023-04-03T02:36:18;4.70;;;2.40;;
8230;SDS011;4156;50.908;6.974;2023-04-03T02:38:44;5.73;;;2.60;;
8230;SDS011;4156;50.908;6.974;2023-04-03T02:41:10;7.93;;;2.40;;
8230;SDS011;4156;50.908;6.974;2023-04-03T02:43:37;3.03;;;2.10;;
8230;SDS011;4156;50.908;6.974;2023-04-03T02:46:03;4.03;;;2.30;;
8230;SDS011;4156;50.908;6.974;2023-04-03T02:48:29;3.67;;;2.50;;
8230;SDS011;4156;50.908;6.974;2023-04-03T02:50:55;2.70;;;2.23;;
8230;SDS011;4156;50.908;6.974;2023-04-03T02:53:20;4.83;;;2.50;;
8230;SDS011;4156;50.908;6.974;2023-04-03T02:55:46;3.13;;;2.40;;
8230;SDS011;4156;50.908;6.974;2023-04-03T02:58:12;3.30;;;2.40;;
8230;SDS011;4156;50.908;6.974;2023-04-03T03:00:38;3.70;;;2.43;;
8230;SDS011;4156;50.908;6.974;2023-04-03T03:03:03;3.50;;;2.30;;
8230;SDS011;4156;50.908;6.974;2023-04-03T03:05:29;4.17;;;2.60;;
8230;SDS011;4156;50.908;6.974;2023-04-03T03:07:55;4.97;;;2.40;;
8230;SDS011;4156;50.908;6.974;2023-04-03T03:10:21;3.93;;;2.27;;
8230;SDS011;4156;50.908;6.974;2023-04-03T03:12:47;4.17;;;2.40;;
8230;SDS011;4156;50.908;6.974;2023-04-03T03:15:13;5.33;;;2.37;;
8230;SDS011;4156;50.908;6.974;2023-04-03T03:17:40;3.87;;;2.20;;
8230;SDS011;4156;50.908;6.974;2023-04-03T03:20:06;2.40;;;2.00;;
8230;SDS011;4156;50.908;6.974;2023-04-03T03:22:32;3.83;;;3.43;;
8230;SDS011;4156;50.908;6.974;2023-04-03T03:24:58;2.60;;;2.20;;
8230;SDS011;4156;50.908;6.974;2023-04-03T03:27:24;3.27;;;2.23;;
8230;SDS011;4156;50.908;6.974;2023-04-03T03:29:49;4.53;;;2.10;;
8230;SDS011;4156;50.908;6.974;2023-04-03T03:32:15;5.20;;;2.77;;
8230;SDS011;4156;50.908;6.974;2023-04-03T03:34:41;5.17;;;2.50;;
8230;SDS011;4156;50.908;6.974;2023-04-03T03:37:06;3.53;;;2.20;;
8230;SDS011;4156;50.908;6.974;2023-04-03T03:39:32;4.60;;;2.60;;
8230;SDS011;4156;50.908;6.974;2023-04-03T03:41:57;3.37;;;2.27;;
8230;SDS011;4156;50.908;6.974;2023-04-03T03:44:23;6.63;;;2.57;;
8230;SDS011;4156;50.908;6.974;2023-04-03T03:46:48;3.03;;;2.30;;
8230;SDS011;4156;50.908;6.974;2023-04-03T03:49:14;4.87;;;2.50;;
8230;SDS011;4156;50.908;6.974;2023-04-03T03:51:39;4.70;;;2.20;;
8230;SDS011;4156;50.908;6.974;2023-04-03T03:54:05;2.53;;;2.10;;
8230;SDS011;4156;50.908;6.974;2023-04-03T03:56:32;2.50;;;2.07;;
8230;SDS011;4156;50.908;6.974;2023-04-03T03:58:58;3.53;;;2.10;;
8230;SDS011;4156;50.908;6.974;2023-04-03T04:01:24;5.33;;;2.40;;
8230;SDS011;4156;50.908;6.974;2023-04-03T04:03:49;4.07;;;2.37;;
8230;SDS011;4156;50.908;6.974;2023-04-03T04:06:15;5.30;;;2.30;;
8230;SDS011;4156;50.908;6.974;2023-04-03T04:08:41;6.23;;;2.80;;
8230;SDS011;4156;50.908;6.974;2023-04-03T04:11:08;3.00;;;2.30;;
8230;SDS011;4156;50.908;6.974;2023-04-03T04:13:34;4.37;;;2.57;;
8230;SDS011;4156;50.908;6.974;2023-04-03T04:15:59;2.93;;;2.10;;
8230;SDS011;4156;50.908;6.974;2023-04-03T04:18:25;3.17;;;2.30;;
8230;SDS011;4156;50.908;6.974;2023-04-03T04:20:51;6.57;;;2.43;;
8230;SDS011;4156;50.908;6.974;2023-04-03T04:23:17;5.47;;;2.50;;
8230;SDS011;4156;50.908;6.974;2023-04-03T04:25:46;3.63;;;2.20;;
8230;SDS011;4156;50.908;6.974;2023-04-03T04:28:13;4.00;;;2.20;;
8230;SDS011;4156;50.908;6.974;2023-04-03T04:30:38;5.17;;;2.30;;
8230;SDS011;4156;50.908;6.974;2023-04-03T04:33:04;3.63;;;2.10;;
8230;SDS011;4156;50.908;6.974;2023-04-03T04:35:30;3.07;;;2.40;;
8230;SDS011;4156;50.908;6.974;2023-04-03T04:37:56;3.27;;;2.47;;
8230;SDS011;4156;50.908;6.974;2023-04-03T04:40:21;3.73;;;2.10;;
8230;SDS011;4156;50.908;6.974;2023-04-03T04:42:47;2.60;;;2.23;;
8230;SDS011;4156;50.908;6.974;2023-04-03T04:45:12;3.13;;;2.20;;
8230;SDS011;4156;50.908;6.974;2023-04-03T04:47:38;2.83;;;1.93;;
8230;SDS011;4156;50.908;6.974;2023-04-03T04:50:04;2.07;;;1.87;;
8230;SDS011;4156;50.908;6.974;2023-04-03T04:52:30;7.00;;;2.70;;
8230;SDS011;4156;50.908;6.974;2023-04-03T04:54:55;3.80;;;2.20;;
8230;SDS011;4156;50.908;6.974;2023-04-03T04:57:21;2.97;;;2.20;;
8230;SDS011;4156;50.908;6.974;2023-04-03T04:59:46;3.77;;;2.23;;
8230;SDS011;4156;50.908;6.974;2023-04-03T05:02:12;2.50;;;2.20;;
8230;SDS011;4156;50.908;6.974;2023-04-03T05:04:37;2.73;;;2.13;;
8230;SDS011;4156;50.908;6.974;2023-04-03T05:07:03;3.33;;;2.10;;
8230;SDS011;4156;50.908;6.974;2023-04-03T05:09:28;3.80;;;2.30;;
8230;SDS011;4156;50.908;6.974;2023-04-03T05:11:54;2.20;;;1.87;;
8230;SDS011;4156;50.908;6.974;2023-04-03T05:14:21;5.10;;;2.10;;
8230;SDS011;4156;50.908;6.974;2023-04-03T05:16:46;3.63;;;2.07;;
8230;SDS011;4156;50.908;6.974;2023-04-03T05:19:12;2.30;;;2.07;;
8230;SDS011;4156;50.908;6.974;2023-04-03T05:21:38;3.80;;;2.20;;
8230;SDS011;4156;50.908;6.974;2023-04-03T05:24:04;2.83;;;2.10;;
8230;SDS011;4156;50.908;6.974;2023-04-03T05:26:30;5.30;;;2.30;;
8230;SDS011;4156;50.908;6.974;2023-04-03T05:28:56;2.63;;;2.00;;
8230;SDS011;4156;50.908;6.974;2023-04-03T05:31:22;3.07;;;2.03;;
8230;SDS011;4156;50.908;6.974;2023-04-03T05:33:48;3.47;;;1.90;;
8230;SDS011;4156;50.908;6.974;2023-04-03T05:36:14;3.97;;;1.97;;
8230;SDS011;4156;50.908;6.974;2023-04-03T05:38:40;3.17;;;1.80;;
8230;SDS011;4156;50.908;6.974;2023-04-03T05:41:06;3.27;;;2.17;;
8230;SDS011;4156;50.908;6.974;2023-04-03T05:43:31;3.27;;;2.20;;
8230;SDS011;4156;50.908;6.974;2023-04-03T05:45:58;4.43;;;2.20;;
8230;SDS011;4156;50.908;6.974;2023-04-03T05:48:24;3.20;;;2.17;;
8230;SDS011;4156;50.908;6.974;2023-04-03T05:50:50;2.93;;;1.80;;
8230;SDS011;4156;50.908;6.974;2023-04-03T05:53:17;4.87;;;2.03;;
8230;SDS011;4156;50.908;6.974;2023-04-03T05:55:46;4.10;;;2.37;;
8230;SDS011;4156;50.908;6.974;2023-04-03T05:58:12;2.50;;;1.93;;
8230;SDS011;4156;50.908;6.974;2023-04-03T06:00:38;4.37;;;2.13;;
8230;SDS011;4156;50.908;6.974;2023-04-03T06:03:03;4.03;;;2.27;;
8230;SDS011;4156;50.908;6.974;2023-04-03T06:05:29;5.00;;;2.10;;
8230;SDS011;4156;50.908;6.974;2023-04-03T06:07:55;3.60;;;2.03;;
8230;SDS011;4156;50.908;6.974;2023-04-03T06:10:22;5.23;;;1.93;;
8230;SDS011;4156;50.908;6.974;2023-04-03T06:12:47;4.43;;;2.10;;
8230;SDS011;4156;50.908;6.974;2023-04-03T06:15:13;5.10;;;2.40;;
8230;SDS011;4156;50.908;6.974;2023-04-03T06:17:38;4.90;;;1.97;;
8230;SDS011;4156;50.908;6.974;2023-04-03T06:20:04;5.97;;;2.13;;
8230;SDS011;4156;50.908;6.974;2023-04-03T06:22:30;5.80;;;2.00;;
8230;SDS011;4156;50.908;6.974;2023-04-03T06:24:56;4.73;;;1.83;;
8230;SDS011;4156;50.908;6.974;2023-04-03T06:27:22;3.13;;;1.90;;
8230;SDS011;4156;50.908;6.974;2023-04-03T06:29:47;2.73;;;2.00;;
8230;SDS011;4156;50.908;6.974;2023-04-03T06:32:14;2.17;;;1.80;;
8230;SDS011;4156;50.908;6.974;2023-04-03T06:34:40;5.97;;;2.13;;
8230;SDS011;4156;50.908;6.974;2023-04-03T06:37:06;3.20;;;2.20;;
8230;SDS011;4156;50.908;6.974;2023-04-03T06:39:35;3.13;;;1.90;;
8230;SDS011;4156;50.908;6.974;2023-04-03T06:42:01;2.60;;;1.70;;
8230;SDS011;4156;50.908;6.974;2023-04-03T06:44:26;4.67;;;1.53;;
8230;SDS011;4156;50.908;6.974;2023-04-03T06:46:52;2.47;;;1.67;;
8230;SDS011;4156;50.908;6.974;2023-04-03T06:49:19;2.23;;;1.73;;
8230;SDS011;4156;50.908;6.974;2023-04-03T06:51:44;3.30;;;1.50;;
8230;SDS011;4156;50.908;6.974;2023-04-03T06:54:10;4.80;;;1.93;;
8230;SDS011;4156;50.908;6.974;2023-04-03T06:56:37;4.03;;;1.90;;
8230;SDS011;4156;50.908;6.974;2023-04-03T06:59:03;3.23;;;1.70;;
8230;SDS011;4156;50.908;6.974;2023-04-03T07:01:28;3.37;;;1.70;;
8230;SDS011;4156;50.908;6.974;2023-04-03T07:03:55;2.50;;;1.90;;
8230;SDS011;4156;50.908;6.974;2023-04-03T07:06:21;3.40;;;1.90;;
8230;SDS011;4156;50.908;6.974;2023-04-03T07:08:47;3.40;;;2.30;;
8230;SDS011;4156;50.908;6.974;2023-04-03T07:11:14;2.60;;;1.73;;
8230;SDS011;4156;50.908;6.974;2023-04-03T07:13:40;5.80;;;1.73;;
8230;SDS011;4156;50.908;6.974;2023-04-03T07:16:06;2.93;;;1.80;;
8230;SDS011;4156;50.908;6.974;2023-04-03T07:18:33;4.90;;;1.80;;
8230;SDS011;4156;50.908;6.974;2023-04-03T07:20:59;1.80;;;1.43;;
8230;SDS011;4156;50.908;6.974;2023-04-03T07:23:25;2.93;;;1.63;;
8230;SDS011;4156;50.908;6.974;2023-04-03T07:25:50;3.03;;;1.37;;
8230;SDS011;4156;50.908;6.974;2023-04-03T07:28:18;2.77;;;1.80;;
8230;SDS011;4156;50.908;6.974;2023-04-03T07:30:45;5.93;;;2.53;;
8230;SDS011;4156;50.908;6.974;2023-04-03T07:33:13;3.67;;;1.67;;
8230;SDS011;4156;50.908;6.974;2023-04-03T07:35:39;2.20;;;1.63;;
8230;SDS011;4156;50.908;6.974;2023-04-03T07:38:06;3.43;;;1.90;;
8230;SDS011;4156;50.908;6.974;2023-04-03T07:40:32;2.17;;;1.37;;
8230;SDS011;4156;50.908;6.974;2023-04-03T07:42:58;3.53;;;1.70;;
8230;SDS011;4156;50.908;6.974;2023-04-03T07:45:24;1.70;;;1.60;;
8230;SDS011;4156;50.908;6.974;2023-04-03T07:47:50;3.47;;;1.70;;
8230;SDS011;4156;50.908;6.974;2023-04-03T07:50:16;3.13;;;1.80;;
8230;SDS011;4156;50.908;6.974;2023-04-03T07:52:42;2.53;;;1.73;;
8230;SDS011;4156;50.908;6.974;2023-04-03T07:55:07;3.20;;;1.60;;
8230;SDS011;4156;50.908;6.974;2023-04-03T07:57:33;1.93;;;1.70;;
8230;SDS011;4156;50.908;6.974;2023-04-03T07:59:59;3.37;;;1.80;;
8230;SDS011;4156;50.908;6.974;2023-04-03T08:02:24;1.93;;;1.50;;
8230;SDS011;4156;50.908;6.974;2023-04-03T08:04:50;2.03;;;1.60;;
8230;SDS011;4156;50.908;6.974;2023-04-03T08:07:15;1.63;;;1.53;;
8230;SDS011;4156;50.908;6.974;2023-04-03T08:09:41;2.73;;;2.00;;
8230;SDS011;4156;50.908;6.974;2023-04-03T08:12:06;3.60;;;2.00;;
8230;SDS011;4156;50.908;6.974;2023-04-03T08:14:32;2.00;;;1.57;;
8230;SDS011;4156;50.908;6.974;2023-04-03T08:16:59;4.63;;;1.90;;
8230;SDS011;4156;50.908;6.974;2023-04-03T08:19:25;3.10;;;1.70;;
8230;SDS011;4156;50.908;6.974;2023-04-03T08:21:51;2.90;;;1.67;;
8230;SDS011;4156;50.908;6.974;2023-04-03T08:24:17;4.10;;;1.73;;
8230;SDS011;4156;50.908;6.974;2023-04-03T08:26:43;1.40;;;1.30;;
8230;SDS011;4156;50.908;6.974;2023-04-03T08:29:08;2.80;;;1.63;;
8230;SDS011;4156;50.908;6.974;2023-04-03T08:31:34;2.70;;;1.63;;
8230;SDS011;4156;50.908;6.974;2023-04-03T08:33:59;2.47;;;1.50;;
8230;SDS011;4156;50.908;6.974;2023-04-03T08:36:26;2.87;;;1.90;;
8230;SDS011;4156;50.908;6.974;2023-04-03T08:38:53;4.27;;;1.70;;
8230;SDS011;4156;50.908;6.974;2023-04-03T08:41:29;5.33;;;1.60;;
8230;SDS011;4156;50.908;6.974;2023-04-03T08:44:14;2.70;;;1.87;;
8230;SDS011;4156;50.908;6.974;2023-04-03T08:47:04;1.83;;;1.40;;
8230;SDS011;4156;50.908;6.974;2023-04-03T08:50:00;3.23;;;1.70;;
8230;SDS011;4156;50.908;6.974;2023-04-03T08:52:39;2.80;;;1.60;;
8230;SDS011;4156;50.908;6.974;2023-04-03T08:55:27;3.77;;;1.70;;
8230;SDS011;4156;50.908;6.974;2023-04-03T09:01:18;3.50;;;1.70;;
8230;SDS011;4156;50.908;6.974;2023-04-03T09:03:46;1.73;;;1.50;;
8230;SDS011;4156;50.908;6.974;2023-04-03T09:06:15;3.57;;;1.57;;
8230;SDS011;4156;50.908;6.974;2023-04-03T09:11:43;3.00;;;1.87;;
8230;SDS011;4156;50.908;6.974;2023-04-03T09:15:24;1.97;;;1.50;;
8230;SDS011;4156;50.908;6.974;2023-04-03T09:17:28;6.23;;;1.83;;
8230;SDS011;4156;50.908;6.974;2023-04-03T09:20:09;3.37;;;1.50;;
8230;SDS011;4156;50.908;6.974;2023-04-03T09:22:50;1.70;;;1.47;;
8230;SDS011;4156;50.908;6.974;2023-04-03T09:25:27;3.23;;;1.70;;
8230;SDS011;4156;50.908;6.974;2023-04-03T09:27:58;2.27;;;1.60;;
8230;SDS011;4156;50.908;6.974;2023-04-03T09:30:25;2.00;;;1.30;;
8230;SDS011;4156;50.908;6.974;2023-04-03T09:32:53;2.53;;;1.73;;
8230;SDS011;4156;50.908;6.974;2023-04-03T09:40:37;2.43;;;1.43;;
8230;SDS011;4156;50.908;6.974;2023-04-03T09:43:26;1.40;;;1.30;;
8230;SDS011;4156;50.908;6.974;2023-04-03T09:45:56;2.77;;;1.93;;
8230;SDS011;4156;50.908;6.974;2023-04-03T09:48:52;1.93;;;1.60;;
8230;SDS011;4156;50.908;6.974;2023-04-03T09:51:25;2.17;;;1.60;;
8230;SDS011;4156;50.908;6.974;2023-04-03T09:53:52;2.30;;;1.67;;
8230;SDS011;4156;50.908;6.974;2023-04-03T09:56:19;2.47;;;1.40;;
8230;SDS011;4156;50.908;6.974;2023-04-03T09:58:53;2.77;;;1.40;;
8230;SDS011;4156;50.908;6.974;2023-04-03T10:01:41;1.97;;;1.33;;
8230;SDS011;4156;50.908;6.974;2023-04-03T10:06:39;2.27;;;1.40;;
8230;SDS011;4156;50.908;6.974;2023-04-03T10:09:24;4.13;;;1.60;;
8230;SDS011;4156;50.908;6.974;2023-04-03T10:12:02;9.83;;;1.60;;
8230;SDS011;4156;50.908;6.974;2023-04-03T10:14:31;2.83;;;1.60;;
8230;SDS011;4156;50.908;6.974;2023-04-03T10:19:57;2.57;;;1.50;;
8230;SDS011;4156;50.908;6.974;2023-04-03T10:22:56;1.30;;;1.17;;
8230;SDS011;4156;50.908;6.974;2023-04-03T10:25:43;2.33;;;1.40;;
8230;SDS011;4156;50.908;6.974;2023-04-03T10:31:10;2.87;;;1.50;;
8230;SDS011;4156;50.908;6.974;2023-04-03T10:39:16;4.40;;;1.60;;
8230;SDS011;4156;50.908;6.974;2023-04-03T10:47:44;1.40;;;1.30;;
8230;SDS011;4156;50.908;6.974;2023-04-03T10:58:53;1.80;;;1.53;;
8230;SDS011;4156;50.908;6.974;2023-04-03T11:01:29;1.60;;;1.20;;
8230;SDS011;4156;50.908;6.974;2023-04-03T11:03:59;1.70;;;1.53;;
8230;SDS011;4156;50.908;6.974;2023-04-03T11:06:31;2.10;;;1.40;;
8230;SDS011;4156;50.908;6.974;2023-04-03T11:09:05;1.43;;;1.20;;
8230;SDS011;4156;50.908;6.974;2023-04-03T11:11:41;2.80;;;1.30;;
8230;SDS011;4156;50.908;6.974;2023-04-03T11:14:16;2.10;;;1.43;;
8230;SDS011;4156;50.908;6.974;2023-04-03T11:17:05;2.50;;;1.17;;
8230;SDS011;4156;50.908;6.974;2023-04-03T11:19:57;2.30;;;1.40;;
8230;SDS011;4156;50.908;6.974;2023-04-03T11:22:29;2.10;;;1.30;;
8230;SDS011;4156;50.908;6.974;2023-04-03T11:27:38;1.30;;;1.20;;
8230;SDS011;4156;50.908;6.974;2023-04-03T11:30:15;2.77;;;1.30;;
8230;SDS011;4156;50.908;6.974;2023-04-03T11:32:54;1.40;;;1.30;;
8230;SDS011;4156;50.908;6.974;2023-04-03T11:35:29;3.07;;;1.20;;
8230;SDS011;4156;50.908;6.974;2023-04-03T11:37:56;1.43;;;1.30;;
8230;SDS011;4156;50.908;6.974;2023-04-03T11:40:26;2.47;;;1.30;;
8230;SDS011;4156;50.908;6.974;2023-04-03T11:47:59;3.10;;;1.30;;
8230;SDS011;4156;50.908;6.974;2023-04-03T12:16:24;1.30;;;1.20;;
8230;SDS011;4156;50.908;6.974;2023-04-03T12:19:03;1.57;;;1.30;;
8230;SDS011;4156;50.908;6.974;2023-04-03T12:24:02;1.40;;;1.30;;
8230;SDS011;4156;50.908;6.974;2023-04-03T12:37:44;2.07;;;1.30;;
8230;SDS011;4156;50.908;6.974;2023-04-03T12:45:59;1.73;;;1.40;;
8230;SDS011;4156;50.908;6.974;2023-04-03T12:48:54;1.53;;;1.30;;
8230;SDS011;4156;50.908;6.974;2023-04-03T12:51:21;4.30;;;1.47;;
8230;SDS011;4156;50.908;6.974;2023-04-03T12:53:54;1.40;;;1.30;;
8230;SDS011;4156;50.908;6.974;2023-04-03T12:56:30;2.37;;;1.40;;
8230;SDS011;4156;50.908;6.974;2023-04-03T12:59:16;1.83;;;1.40;;
8230;SDS011;4156;50.908;6.974;2023-04-03T13:01:53;1.90;;;1.60;;
8230;SDS011;4156;50.908;6.974;2023-04-03T13:04:23;0.97;;;0.97;;
8230;SDS011;4156;50.908;6.974;2023-04-03T13:06:49;5.07;;;1.30;;
8230;SDS011;4156;50.908;6.974;2023-04-03T13:09:19;1.23;;;1.13;;
8230;SDS011;4156;50.908;6.974;2023-04-03T13:11:47;2.20;;;1.13;;
8230;SDS011;4156;50.908;6.974;2023-04-03T13:14:21;1.50;;;1.40;;
8230;SDS011;4156;50.908;6.974;2023-04-03T13:19:24;2.40;;;1.37;;
8230;SDS011;4156;50.908;6.974;2023-04-03T13:21:52;1.33;;;1.23;;
8230;SDS011;4156;50.908;6.974;2023-04-03T13:24:31;3.13;;;1.30;;
8230;SDS011;4156;50.908;6.974;2023-04-03T13:27:00;1.63;;;1.33;;
8230;SDS011;4156;50.908;6.974;2023-04-03T13:29:48;2.13;;;1.60;;
8230;SDS011;4156;50.908;6.974;2023-04-03T13:32:18;2.43;;;1.50;;
8230;SDS011;4156;50.908;6.974;2023-04-03T13:34:47;2.27;;;1.40;;
8230;SDS011;4156;50.908;6.974;2023-04-03T13:37:30;1.93;;;1.40;;
8230;SDS011;4156;50.908;6.974;2023-04-03T13:39:59;3.37;;;1.70;;
8230;SDS011;4156;50.908;6.974;2023-04-03T13:42:32;1.53;;;1.30;;
8230;SDS011;4156;50.908;6.974;2023-04-03T13:45:24;1.70;;;1.30;;
8230;SDS011;4156;50.908;6.974;2023-04-03T13:47:54;1.80;;;1.60;;
8230;SDS011;4156;50.908;6.974;2023-04-03T13:51:02;1.93;;;1.30;;
8230;SDS011;4156;50.908;6.974;2023-04-03T13:53:31;2.43;;;1.97;;
8230;SDS011;4156;50.908;6.974;2023-04-03T13:58:28;2.13;;;1.40;;
8230;SDS011;4156;50.908;6.974;2023-04-03T14:03:41;3.13;;;1.77;;
8230;SDS011;4156;50.908;6.974;2023-04-03T14:06:13;1.87;;;1.40;;
8230;SDS011;4156;50.908;6.974;2023-04-03T14:08:40;3.27;;;1.57;;
8230;SDS011;4156;50.908;6.974;2023-04-03T14:11:08;2.63;;;1.50;;
8230;SDS011;4156;50.908;6.974;2023-04-03T14:13:52;1.93;;;1.30;;
8230;SDS011;4156;50.908;6.974;2023-04-03T14:16:23;1.57;;;1.40;;
8230;SDS011;4156;50.908;6.974;2023-04-03T14:18:52;2.10;;;1.60;;
8230;SDS011;4156;50.908;6.974;2023-04-03T14:21:18;1.30;;;1.20;;
8230;SDS011;4156;50.908;6.974;2023-04-03T14:23:44;2.90;;;1.67;;
8230;SDS011;4156;50.908;6.974;2023-04-03T14:26:21;2.17;;;1.70;;
8230;SDS011;4156;50.908;6.974;2023-04-03T14:28:49;2.27;;;1.47;;
8230;SDS011;4156;50.908;6.974;2023-04-03T14:31:17;3.53;;;1.67;;
8230;SDS011;4156;50.908;6.974;2023-04-03T14:33:43;1.67;;;1.57;;
8230;SDS011;4156;50.908;6.974;2023-04-03T14:36:11;1.83;;;1.50;;
8230;SDS011;4156;50.908;6.974;2023-04-03T14:38:41;2.67;;;1.60;;
8230;SDS011;4156;50.908;6.974;2023-04-03T14:41:07;2.00;;;1.30;;
8230;SDS011;4156;50.908;6.974;2023-04-03T14:43:35;1.87;;;1.50;;
8230;SDS011;4156;50.908;6.974;2023-04-03T14:46:01;2.80;;;1.73;;
8230;SDS011;4156;50.908;6.974;2023-04-03T14:48:27;2.47;;;1.60;;
8230;SDS011;4156;50.908;6.974;2023-04-03T14:50:55;1.77;;;1.50;;
8230;SDS011;4156;50.908;6.974;2023-04-03T14:53:20;2.27;;;1.73;;
8230;SDS011;4156;50.908;6.974;2023-04-03T14:55:51;1.83;;;1.40;;
8230;SDS011;4156;50.908;6.974;2023-04-03T14:58:18;3.30;;;1.80;;
8230;SDS011;4156;50.908;6.974;2023-04-03T15:00:46;3.27;;;1.60;;
8230;SDS011;4156;50.908;6.974;2023-04-03T15:03:15;3.07;;;1.50;;
8230;SDS011;4156;50.908;6.974;2023-04-03T15:05:43;1.90;;;1.63;;
8230;SDS011;4156;50.908;6.974;2023-04-03T15:08:16;2.17;;;1.50;;
8230;SDS011;4156;50.908;6.974;2023-04-03T15:10:42;1.47;;;1.37;;
8230;SDS011;4156;50.908;6.974;2023-04-03T15:13:08;3.53;;;1.80;;
8230;SDS011;4156;50.908;6.974;2023-04-03T15:15:36;1.60;;;1.50;;
8230;SDS011;4156;50.908;6.974;2023-04-03T15:18:02;1.67;;;1.30;;
8230;SDS011;4156;50.908;6.974;2023-04-03T15:20:28;2.00;;;1.60;;
8230;SDS011;4156;50.908;6.974;2023-04-03T15:22:56;1.60;;;1.50;;
8230;SDS011;4156;50.908;6.974;2023-04-03T15:25:21;2.17;;;1.53;;
8230;SDS011;4156;50.908;6.974;2023-04-03T15:27:48;2.00;;;1.57;;
8230;SDS011;4156;50.908;6.974;2023-04-03T15:30:16;2.20;;;1.53;;
8230;SDS011;4156;50.908;6.974;2023-04-03T15:32:43;1.87;;;1.60;;
8230;SDS011;4156;50.908;6.974;2023-04-03T15:35:08;2.23;;;1.40;;
8230;SDS011;4156;50.908;6.974;2023-04-03T15:37:34;2.20;;;1.40;;
8230;SDS011;4156;50.908;6.974;2023-04-03T15:40:00;1.73;;;1.50;;
8230;SDS011;4156;50.908;6.974;2023-04-03T15:42:26;2.80;;;1.90;;
8230;SDS011;4156;50.908;6.974;2023-04-03T15:44:52;1.90;;;1.40;;
8230;SDS011;4156;50.908;6.974;2023-04-03T15:47:17;2.03;;;1.47;;
8230;SDS011;4156;50.908;6.974;2023-04-03T15:49:43;1.40;;;1.20;;
8230;SDS011;4156;50.908;6.974;2023-04-03T15:52:09;2.63;;;1.83;;
8230;SDS011;4156;50.908;6.974;2023-04-03T15:54:34;1.80;;;1.37;;
8230;SDS011;4156;50.908;6.974;2023-04-03T15:57:00;1.43;;;1.33;;
8230;SDS011;4156;50.908;6.974;2023-04-03T15:59:25;2.07;;;1.50;;
8230;SDS011;4156;50.908;6.974;2023-04-03T16:01:51;2.00;;;1.43;;
8230;SDS011;4156;50.908;6.974;2023-04-03T16:04:18;5.37;;;1.57;;
8230;SDS011;4156;50.908;6.974;2023-04-03T16:06:45;2.40;;;1.50;;
8230;SDS011;4156;50.908;6.974;2023-04-03T16:09:11;1.40;;;1.30;;
8230;SDS011;4156;50.908;6.974;2023-04-03T16:11:37;1.73;;;1.53;;
8230;SDS011;4156;50.908;6.974;2023-04-03T16:14:05;3.03;;;1.77;;
8230;SDS011;4156;50.908;6.974;2023-04-03T16:16:31;2.40;;;1.70;;
8230;SDS011;4156;50.908;6.974;2023-04-03T16:18:57;2.50;;;1.90;;
8230;SDS011;4156;50.908;6.974;2023-04-03T16:21:22;2.40;;;1.60;;
8230;SDS011;4156;50.908;6.974;2023-04-03T16:23:48;1.40;;;1.30;;
8230;SDS011;4156;50.908;6.974;2023-04-03T16:26:14;3.07;;;1.50;;
8230;SDS011;4156;50.908;6.974;2023-04-03T16:28:40;2.10;;;1.57;;
8230;SDS011;4156;50.908;6.974;2023-04-03T16:31:06;5.73;;;1.97;;
8230;SDS011;4156;50.908;6.974;2023-04-03T16:33:32;2.37;;;1.47;;
8230;SDS011;4156;50.908;6.974;2023-04-03T16:35:58;3.10;;;1.80;;
8230;SDS011;4156;50.908;6.974;2023-04-03T16:38:24;2.07;;;1.50;;
8230;SDS011;4156;50.908;6.974;2023-04-03T16:40:50;2.37;;;1.70;;
8230;SDS011;4156;50.908;6.974;2023-04-03T16:43:17;5.33;;;2.67;;
8230;SDS011;4156;50.908;6.974;2023-04-03T16:45:42;2.13;;;1.53;;
8230;SDS011;4156;50.908;6.974;2023-04-03T16:48:08;2.00;;;1.50;;
8230;SDS011;4156;50.908;6.974;2023-04-03T16:50:34;2.10;;;1.50;;
8230;SDS011;4156;50.908;6.974;2023-04-03T16:53:00;2.40;;;1.67;;
8230;SDS011;4156;50.908;6.974;2023-04-03T16:55:27;3.10;;;1.50;;
8230;SDS011;4156;50.908;6.974;2023-04-03T16:57:53;2.63;;;1.50;;
8230;SDS011;4156;50.908;6.974;2023-04-03T17:00:19;1.80;;;1.50;;
8230;SDS011;4156;50.908;6.974;2023-04-03T17:02:45;1.57;;;1.43;;
8230;SDS011;4156;50.908;6.974;2023-04-03T17:05:10;1.70;;;1.57;;
8230;SDS011;4156;50.908;6.974;2023-04-03T17:07:36;2.50;;;1.50;;
8230;SDS011;4156;50.908;6.974;2023-04-03T17:10:01;12.20;;;1.77;;
8230;SDS011;4156;50.908;6.974;2023-04-03T17:12:27;1.53;;;1.30;;
8230;SDS011;4156;50.908;6.974;2023-04-03T17:14:52;2.33;;;1.63;;